Latest Weather Observations for Tocal

IDN60801

Issued at 11:33 pm EST Saturday 27 August 2016 (issued every 30 minutes, with the page automatically refreshed every 10 minutes)

About weather observations | Map of weather stations | Latest weather observations for NSW | Other Formats
Station Details ID: 061250 Name: TOCAL AWS Lat: -32.63 Lon: 151.59 Height: 30.0 m
Data from the previous 72 hours. | See also: Recent months at Tocal
Date/Time
EST
Temp
°C
App
Temp
°C
Dew
Point
°C
Rel
Hum
%
Delta-T
°C
Wind Press
QNH
hPa
Press
MSL
hPa
Rain since
9am
mm
Dir  Spd
km/h
Gust
km/h
Spd
kts
Gust
kts
27/11:30pm 7.0 6.1 6.1 94 0.4 CALM 0 0 0 0 - - 0.0
27/11:00pm 8.5 7.0 6.8 89 0.8 SSE 4 7 2 4 - - 0.0
27/10:30pm 8.1 7.3 6.6 90 0.7 CALM 0 0 0 0 - - 0.0
27/10:00pm 7.4 5.4 6.3 93 0.5 WSW 6 9 3 5 - - 0.0
27/09:30pm 8.3 7.1 6.6 89 0.8 N 2 7 1 4 - - 0.0
27/09:00pm 8.2 7.1 6.7 90 0.7 W 2 7 1 4 - - 0.0
27/08:30pm 8.6 6.6 7.1 90 0.7 NW 7 9 4 5 - - 0.0
27/08:00pm 9.2 7.3 7.5 89 0.8 WNW 7 7 4 4 - - 0.0
27/07:30pm 10.3 8.7 7.8 84 1.2 W 6 7 3 4 - - 0.0
27/07:00pm 10.8 9.6 8.1 83 1.3 NW 4 7 2 4 - - 0.0
27/06:30pm 12.5 10.9 8.0 74 2.2 W 6 7 3 4 - - 0.0
27/06:00pm 14.2 - 7.7 65 3.2 - - - - - - - 0.0
27/05:30pm 15.2 - 7.6 60 3.8 - - - - - - - 0.0
27/05:00pm 16.5 15.9 7.3 54 4.6 CALM 0 0 0 0 - - 0.0
27/04:30pm 16.7 16.0 6.8 52 4.9 CALM 0 0 0 0 - - 0.0
27/04:00pm 17.5 15.1 5.3 44 5.9 NE 7 13 4 7 - - 0.0
27/03:30pm 18.0 15.8 5.2 43 6.2 E 6 11 3 6 - - 0.0
27/03:00pm 18.2 15.9 4.9 41 6.4 NNW 6 11 3 6 - - 0.0
27/02:30pm 17.5 14.4 5.5 45 5.8 NNE 11 15 6 8 - - 0.0
27/02:00pm 18.0 15.9 6.5 47 5.7 NW 7 11 4 6 - - 0.0
27/01:30pm 17.7 15.6 6.6 48 5.5 SSE 7 11 4 6 - - 0.0
27/01:00pm 17.1 15.2 6.8 50 5.1 ENE 6 11 3 6 - - 0.0
27/12:30pm 16.7 14.8 6.8 52 4.9 ENE 6 9 3 5 - - 0.0
27/12:00pm 15.6 13.5 6.6 55 4.4 W 7 11 4 6 - - 0.0
27/11:30am 15.5 12.6 6.5 55 4.4 W 11 15 6 8 - - 0.0
27/11:00am 15.7 13.0 5.7 51 4.8 WSW 9 15 5 8 - - 0.0
27/10:30am 15.2 12.0 5.3 51 4.7 W 11 15 6 8 - - 0.0
27/10:00am 15.0 12.8 5.3 52 4.6 WNW 6 13 3 7 - - 0.0
27/09:30am 13.8 11.2 6.3 60 3.6 W 9 13 5 7 - - 0.0
27/09:00am 12.4 9.8 6.0 65 3.0 W 9 15 5 8 - - 1.0
27/08:30am 10.9 9.2 7.6 80 1.6 N 6 7 3 4 - - 1.0
27/08:00am 9.8 7.7 8.1 89 0.8 N 9 11 5 6 - - 1.0
27/07:30am 7.8 6.7 6.9 94 0.4 ENE 2 7 1 4 - - 1.0
27/07:00am 7.2 6.4 6.5 95 0.3 CALM 0 0 0 0 - - 1.0
27/06:30am 7.0 6.2 6.3 95 0.3 CALM 0 0 0 0 - - 1.0
27/06:00am 7.3 5.1 6.4 94 0.4 ENE 7 7 4 4 - - 1.0
27/05:30am 7.9 5.8 6.6 91 0.6 E 7 9 4 5 - - 1.0
27/05:00am 7.9 7.1 6.6 91 0.6 CALM 0 0 0 0 - - 1.0
27/04:30am 8.1 7.4 6.8 91 0.6 CALM 0 0 0 0 - - 1.0
27/04:00am 8.0 6.9 6.9 93 0.5 E 2 7 1 4 - - 1.0
27/03:30am 7.9 6.1 7.0 94 0.4 E 6 7 3 4 - - 1.0
27/03:00am 7.8 6.7 6.9 94 0.4 NNE 2 7 1 4 - - 1.0
27/02:30am 7.7 7.0 6.8 94 0.4 CALM 0 0 0 0 - - 1.0
27/02:00am 7.7 6.2 6.8 94 0.4 N 4 7 2 4 - - 0.8
27/01:30am 6.9 5.0 6.5 97 0.2 NE 6 7 3 4 - - 0.8
27/01:00am 7.0 6.3 6.8 99 0.1 CALM 0 0 0 0 - - 0.8
27/12:30am 7.1 5.6 6.7 97 0.2 SW 4 9 2 5 - - 0.8
27/12:00am 7.7 6.7 7.5 99 0.1 N 2 6 1 3 - - 0.8
 
Date/Time
EST
Temp
°C
App
Temp
°C
Dew
Point
°C
Rel
Hum
%
Delta-T
°C
Wind Press
QNH
hPa
Press
MSL
hPa
Rain since
9am
mm
Dir  Spd
km/h
Gust
km/h
Spd
kts
Gust
kts
26/11:30pm 7.7 7.1 7.3 97 0.2 CALM 0 0 0 0 - - 0.8
26/11:00pm 8.4 7.5 7.8 96 0.3 NNW 2 7 1 4 - - 0.8
26/10:30pm 8.9 8.5 8.1 95 0.4 CALM 0 7 0 4 - - 0.8
26/10:00pm 9.5 9.1 8.3 92 0.6 CALM 0 0 0 0 - - 0.8
26/09:30pm 9.8 8.2 8.6 92 0.6 WSW 7 11 4 6 - - 0.8
26/09:00pm 9.4 7.9 8.4 93 0.5 W 6 7 3 4 - - 0.4
26/08:30pm 9.5 8.1 8.9 96 0.3 N 6 7 3 4 - - 0.4
26/08:00pm 9.6 8.6 9.0 96 0.3 NW 4 6 2 3 - - 0.4
26/07:30pm 10.2 9.6 9.0 92 0.6 SW 2 9 1 5 - - 0.4
26/07:00pm 10.2 8.8 8.8 91 0.7 E 6 7 3 4 - - 0.0
26/06:30pm 10.2 9.1 8.4 89 0.9 WNW 4 7 2 4 - - 0.0
26/06:00pm 10.5 8.5 8.5 87 1.0 SSE 9 13 5 7 - - 0.0
26/05:30pm 11.1 8.2 8.0 81 1.5 S 13 24 7 13 - - 0.0
26/05:00pm 13.1 10.4 5.4 59 3.6 S 9 15 5 8 - - 0.0
26/04:30pm 14.0 10.2 3.9 50 4.6 S 13 19 7 10 - - 0.0
26/04:00pm 14.4 10.0 4.5 51 4.6 S 17 26 9 14 - - 0.0
26/03:30pm 15.0 11.3 2.4 42 5.6 SW 11 22 6 12 - - 0.0
26/03:00pm 14.3 11.9 5.4 55 4.2 SSW 7 9 4 5 - - 0.0
26/02:30pm 14.0 11.7 5.0 54 4.2 NNE 6 7 3 4 - - 0.0
26/02:00pm 14.0 11.2 5.0 54 4.2 N 9 11 5 6 - - 0.0
26/01:30pm 13.6 9.6 5.0 56 4.0 NNW 15 20 8 11 - - 0.0
26/01:00pm 13.7 10.6 5.4 57 3.9 WNW 11 15 6 8 - - 0.0
26/12:30pm 13.9 10.1 3.8 50 4.6 W 13 19 7 10 - - 0.0
26/12:00pm 14.9 10.4 4.3 49 4.9 W 17 24 9 13 - - 0.0
26/11:30am 14.1 10.6 3.5 49 4.8 WNW 11 19 6 10 - - 0.0
26/11:00am 13.7 9.9 4.1 52 4.4 W 13 20 7 11 - - 0.0
26/10:30am 12.6 8.8 4.0 56 3.9 WSW 13 19 7 10 - - 0.0
26/10:00am 12.2 8.2 3.1 53 4.0 W 13 22 7 12 - - 0.0
26/09:30am 11.7 8.3 3.9 59 3.5 NW 11 19 6 10 - - 0.0
26/09:00am 10.5 7.5 4.0 64 2.9 WNW 9 15 5 8 - - 0.2
26/08:30am 9.8 6.3 3.4 64 2.8 WNW 11 17 6 9 - - 0.2
26/08:00am 9.5 6.3 3.3 65 2.7 WNW 9 17 5 9 - - 0.2
26/07:30am 8.0 5.4 4.1 76 1.7 N 7 9 4 5 - - 0.2
26/07:00am 7.8 4.9 2.8 70 2.1 W 7 15 4 8 - - 0.2
26/06:30am 6.6 3.7 2.5 75 1.7 NW 7 13 4 7 - - 0.2
26/06:00am 6.3 3.0 2.7 78 1.5 NNW 9 13 5 7 - - 0.2
26/05:30am 7.2 4.3 2.4 71 2.0 NNE 7 11 4 6 - - 0.2
26/05:00am 6.6 3.7 2.5 75 1.7 ENE 7 11 4 6 - - 0.2
26/04:30am 6.2 3.3 2.8 79 1.4 NE 7 11 4 6 - - 0.2
26/04:00am 6.7 3.9 3.1 78 1.5 N 7 9 4 5 - - 0.2
26/03:30am 7.7 4.4 2.7 70 2.1 N 9 11 5 6 - - 0.2
26/03:00am 7.7 5.1 3.2 73 1.9 NNW 6 9 3 5 - - 0.2
26/02:30am 8.0 5.3 3.6 74 1.9 N 7 9 4 5 - - 0.2
26/02:00am 7.7 5.2 4.0 77 1.6 SE 6 9 3 5 - - 0.2
26/01:30am 7.7 5.2 3.7 76 1.7 E 6 7 3 4 - - 0.2
26/01:00am 7.5 4.9 4.0 78 1.5 NNE 7 9 4 5 - - 0.2
26/12:30am 8.0 5.0 4.3 77 1.6 NW 9 11 5 6 - - 0.2
26/12:00am 7.2 4.8 5.2 87 0.9 N 7 7 4 4 - - 0.2
 
Date/Time
EST
Temp
°C
App
Temp
°C
Dew
Point
°C
Rel
Hum
%
Delta-T
°C
Wind Press
QNH
hPa
Press
MSL
hPa
Rain since
9am
mm
Dir  Spd
km/h
Gust
km/h
Spd
kts
Gust
kts
25/11:30pm 7.0 5.4 6.3 95 0.3 ENE 4 7 2 4 - - 0.2
25/11:00pm 7.3 6.6 6.9 97 0.2 CALM 0 0 0 0 - - 0.2
25/10:30pm 7.8 6.1 7.4 97 0.2 WNW 6 7 3 4 - - 0.2
25/10:00pm 7.9 6.2 7.5 97 0.2 NNW 6 9 3 5 - - 0.2
25/09:30pm 8.0 6.3 7.6 97 0.2 NW 6 7 3 4 - - 0.2
25/09:00pm 8.0 6.3 7.6 97 0.2 N 6 9 3 5 - - 0.2
25/08:30pm 9.2 8.3 7.7 90 0.7 SSE 2 7 1 4 - - 0.2
25/08:00pm 8.4 7.9 8.0 97 0.2 CALM 0 0 0 0 - - 0.2
25/07:30pm 9.0 8.2 8.2 95 0.4 N 2 7 1 4 - - 0.2
25/07:00pm 10.2 8.6 8.1 87 1.0 WNW 6 7 3 4 - - 0.2
25/06:30pm 11.6 10.6 7.5 76 2.0 S 2 7 1 4 - - 0.2
25/06:00pm 12.8 10.0 6.8 67 2.9 SSW 11 17 6 9 - - 0.2
25/05:30pm 12.5 10.2 7.6 72 2.4 NW 9 11 5 6 - - 0.2
25/05:00pm 12.8 11.4 9.5 80 1.7 N 7 9 4 5 - - 0.2
25/04:30pm 13.7 12.1 7.8 67 2.9 N 6 7 3 4 - - 0.2
25/04:00pm 13.5 11.7 8.1 70 2.7 WSW 7 13 4 7 - - 0.2
25/03:30pm 15.2 12.1 7.3 59 3.9 WNW 13 20 7 11 - - 0.2
25/03:00pm 15.8 12.7 7.3 57 4.2 WNW 13 22 7 12 - - 0.2
25/02:30pm 15.7 12.1 6.7 55 4.4 W 15 20 8 11 - - 0.2
25/02:00pm 15.4 12.1 6.3 54 4.4 W 13 19 7 10 - - 0.2
25/01:30pm 16.3 12.9 7.7 56 4.3 WNW 15 26 8 14 - - 0.2
25/01:00pm 14.9 10.5 6.4 57 4.1 W 19 30 10 16 - - 0.2
25/12:30pm 14.1 10.2 6.9 62 3.5 W 17 32 9 17 - - 0.2
25/12:00pm 14.3 10.7 6.9 61 3.6 WNW 15 26 8 14 - - 0.2
25/11:30am 14.4 10.9 7.3 62 3.5 WNW 15 24 8 13 - - 0.2
25/11:00am 12.9 8.8 6.2 64 3.2 W 17 32 9 17 - - 0.2
25/10:30am 12.6 8.6 6.5 66 2.9 W 17 26 9 14 - - 0.2
25/10:00am 11.7 8.2 7.3 74 2.1 W 15 24 8 13 - - 0.2
25/09:30am 11.2 6.9 6.8 74 2.1 W 19 26 10 14 - - 0.0
25/09:01am - - - - - - - - - - - - -
25/09:00am 11.4 7.7 6.3 71 2.4 W 15 26 8 14 - - 4.8
25/08:30am 11.4 7.9 5.3 66 2.8 W 13 20 7 11 - - 4.8
25/08:00am 11.5 8.1 5.7 67 2.7 W 13 22 7 12 - - 4.8
25/07:30am 10.5 7.9 6.2 75 2.0 W 9 15 5 8 - - 4.8
25/07:00am 10.1 7.9 6.0 76 1.9 W 7 11 4 6 - - 4.8
25/06:30am 10.0 8.0 6.4 78 1.7 W 6 9 3 5 - - 4.8
25/06:00am 10.0 7.1 6.6 79 1.6 W 11 15 6 8 - - 4.8
25/05:30am 10.0 6.7 6.4 78 1.7 W 13 19 7 10 - - 4.8
25/05:00am 10.0 7.5 6.4 78 1.7 W 9 15 5 8 - - 4.8
25/04:30am 9.9 7.0 6.7 80 1.5 WNW 11 20 6 11 - - 4.8
25/04:00am 9.6 6.8 6.8 83 1.3 WNW 11 17 6 9 - - 4.8
25/03:30am 9.4 7.4 7.1 85 1.1 NW 7 11 4 6 - - 4.8
25/03:00am 9.4 7.0 7.1 85 1.1 WNW 9 15 5 8 - - 4.8
25/02:30am 9.7 7.9 7.8 88 0.9 NW 7 11 4 6 - - 4.8
25/02:00am 10.0 7.8 7.7 86 1.1 WNW 9 19 5 10 - - 4.8
25/01:30am 10.0 7.4 7.9 87 1.0 WNW 11 17 6 9 - - 4.8
25/01:00am 10.1 7.1 7.6 84 1.2 W 13 19 7 10 - - 4.8
25/12:30am 10.2 6.4 7.5 83 1.3 W 17 26 9 14 - - 4.8
25/12:00am 10.4 6.6 7.7 83 1.3 W 17 28 9 15 - - 4.8

Other Formats:

Comma delimited format used in spreadsheet applications
http://www.bom.gov.au/fwo/IDN60801/IDN60801.94775.axf

JavaScript Object Notation format (JSON) in row-major order
http://www.bom.gov.au/fwo/IDN60801/IDN60801.94775.json